createdAt,value
2019-02-14T00:00:44.161Z,2.70
2019-02-14T00:03:33.057Z,2.70
2019-02-14T00:06:06.148Z,2.50
2019-02-14T00:08:37.048Z,2.90
2019-02-14T00:11:07.823Z,2.93
2019-02-14T00:13:40.855Z,2.80
2019-02-14T00:16:11.691Z,2.70
2019-02-14T00:18:44.044Z,2.80
2019-02-14T00:21:14.976Z,2.60
2019-02-14T00:24:16.433Z,3.30
2019-02-14T00:26:51.206Z,3.93
2019-02-14T00:29:25.911Z,2.73
2019-02-14T00:32:16.315Z,2.93
2019-02-14T00:34:47.347Z,2.67
2019-02-14T00:37:21.662Z,3.13
2019-02-14T00:39:57.961Z,2.93
2019-02-14T00:42:33.522Z,2.87
2019-02-14T00:45:06.093Z,3.30
2019-02-14T00:47:42.632Z,3.17
2019-02-14T00:50:18.262Z,3.20
2019-02-14T00:52:57.218Z,3.40
2019-02-14T00:55:36.767Z,4.20
2019-02-14T00:58:19.043Z,4.03
2019-02-14T01:01:04.142Z,3.53
2019-02-14T01:03:45.110Z,4.23
2019-02-14T01:06:21.641Z,3.97
2019-02-14T01:09:00.509Z,3.80
2019-02-14T01:12:01.993Z,4.17
2019-02-14T01:14:41.534Z,4.00
2019-02-14T01:17:19.486Z,3.90
2019-02-14T01:19:59.140Z,4.17
2019-02-14T01:22:40.631Z,4.13
2019-02-14T01:25:23.864Z,4.27
2019-02-14T01:28:11.291Z,3.53
2019-02-14T01:30:59.371Z,4.03
2019-02-14T01:33:35.386Z,4.17
2019-02-14T01:36:25.627Z,3.67
2019-02-14T01:39:15.137Z,4.20
2019-02-14T01:41:55.623Z,3.47
2019-02-14T01:44:31.751Z,3.40
2019-02-14T01:47:09.381Z,3.07
2019-02-14T01:49:56.359Z,3.80
2019-02-14T01:52:46.152Z,3.27
2019-02-14T01:55:16.783Z,3.20
2019-02-14T01:58:07.533Z,3.20
2019-02-14T02:00:44.579Z,3.57
2019-02-14T02:03:30.055Z,3.37
2019-02-14T02:06:24.998Z,3.10
2019-02-14T02:08:57.026Z,3.73
2019-02-14T02:11:40.875Z,3.73
2019-02-14T02:14:20.244Z,2.80
2019-02-14T02:17:03.314Z,3.00
2019-02-14T02:19:39.902Z,3.23
2019-02-14T02:22:19.926Z,3.97
2019-02-14T02:25:30.638Z,3.13
2019-02-14T02:28:15.526Z,3.40
2019-02-14T02:30:51.011Z,3.33
2019-02-14T02:33:42.859Z,3.33
2019-02-14T02:36:39.948Z,3.43
2019-02-14T02:39:20.804Z,3.57
2019-02-14T02:41:58.596Z,3.03
2019-02-14T02:44:44.257Z,3.80
2019-02-14T02:47:20.855Z,4.30
2019-02-14T02:49:57.452Z,3.90
2019-02-14T02:52:48.840Z,3.53
2019-02-14T02:55:26.450Z,3.40
2019-02-14T02:58:23.556Z,3.20
2019-02-14T03:00:59.023Z,2.80
2019-02-14T03:03:41.108Z,2.97
2019-02-14T03:06:37.064Z,3.27
2019-02-14T03:09:23.897Z,4.10
2019-02-14T03:12:32.327Z,4.10
2019-02-14T03:15:21.548Z,4.03
2019-02-14T03:18:05.822Z,3.73
2019-02-14T03:20:42.377Z,4.57
2019-02-14T03:23:41.836Z,4.20
2019-02-14T03:26:25.300Z,4.07
2019-02-14T03:29:28.260Z,4.20
2019-02-14T03:32:09.956Z,3.67
2019-02-14T03:35:11.195Z,3.60
2019-02-14T03:38:01.079Z,2.97
2019-02-14T03:41:03.506Z,3.77
2019-02-14T03:44:04.037Z,4.20
2019-02-14T03:47:06.136Z,3.67
2019-02-14T03:50:07.360Z,3.77
2019-02-14T03:52:57.584Z,3.50
2019-02-14T03:55:46.319Z,3.87
2019-02-14T04:02:03.973Z,3.70
2019-02-14T04:04:45.950Z,4.23
2019-02-14T04:11:10.280Z,4.27
2019-02-14T04:13:44.139Z,3.87
2019-02-14T04:16:51.712Z,4.27
2019-02-14T04:19:49.136Z,4.77
2019-02-14T04:22:34.341Z,4.00
2019-02-14T04:28:51.165Z,4.53
2019-02-14T04:31:58.133Z,4.70
2019-02-14T04:34:52.929Z,4.43
2019-02-14T04:37:35.470Z,4.10
2019-02-14T04:43:29.876Z,4.83
2019-02-14T04:46:20.741Z,4.73
2019-02-14T04:49:11.546Z,4.20
2019-02-14T04:52:12.598Z,4.87
2019-02-14T04:55:03.234Z,4.50
2019-02-14T05:01:21.875Z,4.67
2019-02-14T05:04:39.940Z,4.87
2019-02-14T05:07:35.172Z,5.53
2019-02-14T05:11:04.558Z,5.93
2019-02-14T05:16:42.896Z,5.03
2019-02-14T05:26:44.807Z,5.47
2019-02-14T05:30:20.969Z,5.43
2019-02-14T05:36:32.467Z,5.77
2019-02-14T05:39:44.943Z,6.37
2019-02-14T05:48:50.639Z,7.40
2019-02-14T05:51:51.214Z,5.97
2019-02-14T05:54:33.875Z,6.43
2019-02-14T05:57:23.618Z,6.57
2019-02-14T06:10:08.223Z,6.40
2019-02-14T06:12:59.777Z,7.00
2019-02-14T06:15:50.847Z,5.80
2019-02-14T06:18:56.430Z,7.03
2019-02-14T06:22:06.000Z,6.50
2019-02-14T06:25:07.035Z,6.43
2019-02-14T06:28:03.914Z,6.00
2019-02-14T06:31:03.431Z,5.80
2019-02-14T06:34:16.862Z,6.33
2019-02-14T06:44:12.278Z,5.70
2019-02-14T06:54:36.512Z,5.10
2019-02-14T07:00:35.023Z,6.27
2019-02-14T07:07:06.367Z,6.20
2019-02-14T07:23:31.772Z,5.70
2019-02-14T07:27:02.751Z,5.57
2019-02-14T07:29:44.747Z,6.17
2019-02-14T07:33:38.042Z,5.67
2019-02-14T07:42:21.761Z,5.70
2019-02-14T07:45:12.417Z,6.00
2019-02-14T07:53:59.763Z,5.33
2019-02-14T07:57:24.497Z,6.03
2019-02-14T08:00:22.940Z,5.40
2019-02-14T08:03:06.226Z,5.40
2019-02-14T08:07:47.601Z,6.13
2019-02-14T08:09:59.892Z,6.10
2019-02-14T08:21:05.868Z,5.63
2019-02-14T08:23:33.879Z,5.50
2019-02-14T08:30:27.945Z,4.53
2019-02-14T08:36:59.234Z,4.73
2019-02-14T08:48:37.413Z,5.37
2019-02-14T08:51:53.192Z,5.93
2019-02-14T09:07:17.602Z,6.03
2019-02-14T09:10:19.251Z,5.30
2019-02-14T09:13:25.629Z,6.13
2019-02-14T09:16:44.295Z,5.97
2019-02-14T09:19:29.337Z,5.73
2019-02-14T09:22:22.110Z,5.20
2019-02-14T09:25:22.802Z,5.90
2019-02-14T09:28:25.492Z,5.70
2019-02-14T09:31:26.832Z,5.00
2019-02-14T09:38:03.740Z,4.53
2019-02-14T09:41:21.213Z,4.20
2019-02-14T09:44:33.085Z,4.57
2019-02-14T09:47:36.374Z,3.97
2019-02-14T09:50:43.676Z,3.90
2019-02-14T09:54:07.591Z,4.23
2019-02-14T09:56:25.948Z,4.10
2019-02-14T09:59:19.995Z,3.70
2019-02-14T10:05:14.757Z,4.07
2019-02-14T10:08:12.385Z,3.77
2019-02-14T10:11:04.547Z,3.57
2019-02-14T10:14:07.163Z,4.20
2019-02-14T10:16:47.243Z,4.40
2019-02-14T10:22:44.420Z,4.00
2019-02-14T10:25:24.078Z,3.33
2019-02-14T10:27:56.933Z,3.40
2019-02-14T10:30:29.390Z,3.50
2019-02-14T10:32:59.942Z,2.93
2019-02-14T10:35:31.402Z,2.70
2019-02-14T10:38:09.212Z,3.23
2019-02-14T10:40:35.886Z,3.07
2019-02-14T10:43:06.421Z,2.97
2019-02-14T10:45:59.418Z,2.73
2019-02-14T10:48:44.933Z,3.03
2019-02-14T10:51:45.032Z,2.87
2019-02-14T10:54:36.333Z,2.93
2019-02-14T10:57:16.578Z,2.37
2019-02-14T11:00:07.211Z,2.80
2019-02-14T11:05:43.134Z,2.60
2019-02-14T11:08:31.362Z,2.70
2019-02-14T11:11:01.092Z,3.10
2019-02-14T11:13:42.207Z,2.73
2019-02-14T11:16:42.619Z,3.00
2019-02-14T11:19:31.713Z,2.70
2019-02-14T11:22:13.661Z,3.20
2019-02-14T11:24:59.311Z,3.00
2019-02-14T11:27:43.159Z,2.60
2019-02-14T11:30:49.222Z,3.40
2019-02-14T11:33:41.273Z,2.93
2019-02-14T11:36:14.351Z,3.00
2019-02-14T11:39:04.155Z,2.47
2019-02-14T11:41:49.807Z,3.40
2019-02-14T11:44:27.977Z,3.87
2019-02-14T11:47:18.682Z,2.80
2019-02-14T11:50:02.519Z,3.27
2019-02-14T11:52:48.360Z,3.40
2019-02-14T11:55:28.072Z,3.20
2019-02-14T11:58:11.069Z,3.13
2019-02-14T12:04:34.274Z,2.93
2019-02-14T12:07:40.369Z,3.17
2019-02-14T12:10:46.820Z,2.93
2019-02-14T12:13:54.598Z,2.83
2019-02-14T12:16:46.216Z,3.00
2019-02-14T12:19:43.321Z,2.73
2019-02-14T12:22:31.916Z,2.90
2019-02-14T12:25:00.320Z,3.20
2019-02-14T12:27:58.756Z,2.97
2019-02-14T12:30:49.292Z,2.87
2019-02-14T12:33:59.002Z,2.40
2019-02-14T12:37:06.576Z,2.93
2019-02-14T12:39:43.552Z,2.67
2019-02-14T12:42:56.204Z,2.90
2019-02-14T12:45:54.946Z,2.93
2019-02-14T12:49:08.788Z,2.67
2019-02-14T12:51:55.189Z,2.67
2019-02-14T12:54:51.561Z,3.40
2019-02-14T12:57:50.394Z,2.90
2019-02-14T13:03:49.635Z,2.80
2019-02-14T13:10:07.799Z,2.50
2019-02-14T13:13:11.409Z,3.67
2019-02-14T13:16:15.385Z,2.90
2019-02-14T13:19:48.758Z,2.97
2019-02-14T13:22:35.524Z,2.67
2019-02-14T13:25:37.728Z,2.80
2019-02-14T13:28:29.513Z,3.07
2019-02-14T13:31:35.473Z,3.87
2019-02-14T13:34:27.379Z,3.07
2019-02-14T13:38:15.725Z,3.13
2019-02-14T13:41:17.276Z,3.00
2019-02-14T13:44:52.999Z,2.90
2019-02-14T13:47:24.792Z,3.20
2019-02-14T13:50:41.154Z,3.57
2019-02-14T13:53:48.954Z,3.10
2019-02-14T13:56:57.183Z,3.40
2019-02-14T14:00:13.299Z,3.20
2019-02-14T14:03:32.161Z,3.60
2019-02-14T14:06:42.690Z,3.50
2019-02-14T14:16:45.421Z,4.27
2019-02-14T14:32:42.785Z,4.67
2019-02-14T14:35:34.933Z,3.70
2019-02-14T14:57:09.163Z,4.60
2019-02-14T14:59:59.719Z,4.20
2019-02-14T15:02:30.397Z,4.33
2019-02-14T15:05:04.127Z,4.50
2019-02-14T15:07:37.347Z,4.60
2019-02-14T15:10:22.756Z,4.47
2019-02-14T15:12:52.184Z,3.90
2019-02-14T15:15:34.471Z,4.40
2019-02-14T15:19:13.436Z,4.73
2019-02-14T15:44:10.225Z,4.60
2019-02-14T16:28:21.583Z,4.13
2019-02-14T16:34:28.488Z,4.70
2019-02-14T16:36:59.723Z,4.17
2019-02-14T16:39:54.641Z,5.20
2019-02-14T16:42:26.475Z,5.03
2019-02-14T16:45:01.231Z,4.50
2019-02-14T16:47:35.973Z,4.80
2019-02-14T16:50:10.073Z,5.37
2019-02-14T16:52:44.111Z,4.67
2019-02-14T16:55:21.706Z,4.63
2019-02-14T16:57:53.799Z,4.57
2019-02-14T17:00:39.529Z,4.63
2019-02-14T17:37:21.266Z,4.90
2019-02-14T17:41:26.482Z,4.50
2019-02-14T18:07:37.807Z,4.97
2019-02-14T18:11:41.586Z,5.30
2019-02-14T18:13:51.517Z,5.60
2019-02-14T18:35:15.017Z,5.80
2019-02-14T18:41:36.333Z,5.73
2019-02-14T19:13:21.979Z,6.10
2019-02-14T19:25:52.242Z,5.90
2019-02-14T19:28:49.380Z,6.50
2019-02-14T19:37:41.421Z,6.20
2019-02-14T19:40:40.121Z,6.23
2019-02-14T19:47:46.940Z,6.20
2019-02-14T19:54:18.244Z,6.20
2019-02-14T20:17:52.354Z,7.30
2019-02-14T20:24:17.773Z,6.60
2019-02-14T20:27:32.872Z,7.00
2019-02-14T20:31:11.541Z,6.37
2019-02-14T20:35:19.414Z,6.60
2019-02-14T20:38:04.210Z,6.33
2019-02-14T20:41:20.061Z,5.93
2019-02-14T20:48:01.233Z,6.37
2019-02-14T20:50:32.559Z,6.57
2019-02-14T21:40:03.230Z,7.50
2019-02-14T21:46:24.561Z,7.27
2019-02-14T21:56:10.174Z,7.90
2019-02-14T22:08:15.845Z,7.50
2019-02-14T22:20:20.511Z,7.20
2019-02-14T22:24:00.365Z,7.23
2019-02-14T22:38:52.392Z,7.40
2019-02-14T22:42:08.911Z,7.07
2019-02-14T22:45:18.037Z,8.10
2019-02-14T22:48:45.862Z,6.97
2019-02-14T22:54:21.433Z,7.87
2019-02-14T22:57:44.900Z,7.33
2019-02-14T23:00:51.324Z,7.70
2019-02-14T23:03:53.390Z,7.87
2019-02-14T23:07:03.331Z,7.50
2019-02-14T23:13:04.391Z,7.33
2019-02-14T23:19:26.618Z,7.83
2019-02-14T23:22:04.618Z,7.20
2019-02-14T23:28:06.798Z,7.77
2019-02-14T23:31:12.177Z,7.30
2019-02-14T23:34:33.410Z,7.10
2019-02-14T23:37:21.195Z,7.63
2019-02-14T23:40:36.092Z,7.20
2019-02-14T23:43:34.495Z,7.03
2019-02-14T23:46:31.792Z,6.90
2019-02-14T23:49:29.854Z,6.60
2019-02-14T23:52:47.094Z,7.50
2019-02-14T23:55:44.191Z,7.53
